Licenciado Manuel Crescencio Rejon Int Airport
MMMD : rendu visible

Aérodrome :











RETROUVEZ-NOUS SUR...

 
LOGIN :

S'inscrire | Disclaimer

   EN    FR    IT 

 









Légende :    VFR   VFR Marginal   IFR   IFR Intensif   IFR Très Intensif
Visi : 
Plafond : 
>= 8 km
>= 3000ft
5 à 8 km
1000 à 3000 ft
1500m à 5 km
500 à 1000 ft
800 à 1500m
200 à 500 ft
< 800m
< 200 ft
Symboles :   Orages  Brouillard  Fortes neiges  Fortes précipitations  Vent > 20 kt






- Altitude de l'aérodrome : 38 ft
- Code IATA : MID


MMMD - Licenciado Manuel Crescencio Rejon Int

DERNIER METAR :
  • 110540Z 10006KT 7SM SKC 23/21 A3002 RMK SLP169 52006 918

METARs EXPIRÉS :
  • 110449Z 11005KT 7SM SKC 24/21 A3002
  • 110346Z 11012KT 7SM SKC 25/21 A3002

TAF TAF MMMD
Valide du 11 à 06h jusqu'au 12 à 12h UTC


110450Z 1106/1212 11005KT P6SM SKC TX31/1120Z TN19/1112Z
FM111600 12010KT P6SM BKN020
PROB40 1121/1201 5SM RA
FM120300 08005KT P6SM BKN030



MET'MAP, la Météo Aéronautique d'un coup d'oeil ! - Copyright ORBIFLY Décembre 2007 - Disclaimer

ORBIFLY MET'MAP TEAM :

Programmation & Développement : Alexandra Zaïnal
Sur une idée originale de : Baudouin d'Aumeries
Assistance à la programmation : Marc-Olivier Méhu
Soutien technique & logistique : Manuel Goepfert

Contact : metmap@orbifly.com




SOURCES & CREDITS :

   NOAA       Earth
Advisory